Auburndale, Florida
Current Conditions -  °F | °C
As of 9:53 PM on Saturday 25 Oct 2014 (Local Time) from KGIF Reporting Station
Clear Clear  
Wind Chill: 67°   Ceiling: Unl
Heat Index: 67°   Visibility: 10mi
Dew Point: 53°   Wind: 7mph
Humidity: 61%   Direction: 360°N
Pressure: 30"   Gusts: NA
Location:  28.06°N, 81.78°W
Report Text: KGIF 260153Z AUTO 36006KT 10SM CLR 19/12 A3000 RMK AO2 SLP158 T01940117
Loading
Personal Weather Stations






























Interactive Weather Map
Tropical Storm Tracking
New forecast layout! Learn more

10-Day Weather Forecast

Advertisements
Track Severe Weather on mobile